createdAt,value
2018-02-07T00:01:59.793Z,36.15
2018-02-07T00:04:27.263Z,34.55
2018-02-07T00:06:54.828Z,35.28
2018-02-07T00:09:22.278Z,33.63
2018-02-07T00:11:49.746Z,34.22
2018-02-07T00:14:17.215Z,34.33
2018-02-07T00:16:44.679Z,33.83
2018-02-07T00:19:12.140Z,35.25
2018-02-07T00:21:39.619Z,33.28
2018-02-07T00:24:07.109Z,32.65
2018-02-07T00:26:34.612Z,32.83
2018-02-07T00:29:02.120Z,34.00
2018-02-07T00:31:29.578Z,36.80
2018-02-07T00:33:57.042Z,33.05
2018-02-07T00:36:24.653Z,36.25
2018-02-07T00:38:52.262Z,33.83
2018-02-07T00:41:19.760Z,34.70
2018-02-07T00:43:47.223Z,35.50
2018-02-07T00:46:14.686Z,35.75
2018-02-07T00:48:42.180Z,36.17
2018-02-07T00:51:09.714Z,37.42
2018-02-07T00:53:37.178Z,39.20
2018-02-07T00:56:05.682Z,38.05
2018-02-07T00:58:33.197Z,36.45
2018-02-07T01:01:00.666Z,36.55
2018-02-07T01:03:28.152Z,36.35
2018-02-07T01:05:55.826Z,37.33
2018-02-07T01:08:23.352Z,38.33
2018-02-07T01:10:50.847Z,37.35
2018-02-07T01:13:18.318Z,38.03
2018-02-07T01:15:45.799Z,38.80
2018-02-07T01:18:13.252Z,38.22
2018-02-07T01:20:40.805Z,38.92
2018-02-07T01:23:08.314Z,40.70
2018-02-07T01:25:35.777Z,40.22
2018-02-07T01:28:03.268Z,41.40
2018-02-07T01:30:30.742Z,42.35
2018-02-07T01:32:58.209Z,42.22
2018-02-07T01:35:25.675Z,42.38
2018-02-07T01:37:53.145Z,41.33
2018-02-07T01:40:20.618Z,40.95
2018-02-07T01:42:48.076Z,40.63
2018-02-07T01:45:15.530Z,43.08
2018-02-07T01:47:43.010Z,43.83
2018-02-07T01:50:10.515Z,44.38
2018-02-07T01:52:38.246Z,47.00
2018-02-07T01:55:05.795Z,47.70
2018-02-07T01:57:33.242Z,48.83
2018-02-07T02:00:00.746Z,48.72
2018-02-07T02:02:28.226Z,48.70
2018-02-07T02:04:55.698Z,47.60
2018-02-07T02:07:23.163Z,47.30
2018-02-07T02:09:50.629Z,45.15
2018-02-07T02:12:18.088Z,45.78
2018-02-07T02:14:45.606Z,44.97
2018-02-07T02:17:13.719Z,48.65
2018-02-07T02:19:41.203Z,46.63
2018-02-07T02:22:08.677Z,45.17
2018-02-07T02:24:36.198Z,43.90
2018-02-07T02:27:03.662Z,46.75
2018-02-07T02:29:31.222Z,44.33
2018-02-07T02:31:58.678Z,46.97
2018-02-07T02:34:26.160Z,47.67
2018-02-07T02:36:53.637Z,45.95
2018-02-07T02:39:22.116Z,46.80
2018-02-07T02:41:49.581Z,45.95
2018-02-07T02:44:17.050Z,47.90
2018-02-07T02:46:44.505Z,45.70
2018-02-07T02:49:11.988Z,49.55
2018-02-07T02:51:39.442Z,47.33
2018-02-07T02:54:06.903Z,45.60
2018-02-07T02:56:34.380Z,46.78
2018-02-07T02:59:01.833Z,49.13
2018-02-07T03:01:29.302Z,47.80
2018-02-07T03:03:56.854Z,47.62
2018-02-07T03:06:24.335Z,45.97
2018-02-07T03:08:51.806Z,49.45
2018-02-07T03:11:19.254Z,45.40
2018-02-07T03:13:46.739Z,47.60
2018-02-07T03:16:14.207Z,49.70
2018-02-07T03:18:41.731Z,46.20
2018-02-07T03:21:09.209Z,49.38
2018-02-07T03:23:36.668Z,47.92
2018-02-07T03:26:04.162Z,47.15
2018-02-07T03:28:31.622Z,47.33
2018-02-07T03:30:59.081Z,48.15
2018-02-07T03:33:26.546Z,49.80
2018-02-07T03:35:53.999Z,49.67
2018-02-07T03:38:21.476Z,45.95
2018-02-07T03:40:49.014Z,43.47
2018-02-07T03:43:16.474Z,43.92
2018-02-07T03:45:43.930Z,44.47
2018-02-07T03:48:11.410Z,43.03
2018-02-07T03:50:38.871Z,43.80
2018-02-07T03:53:06.335Z,42.67
2018-02-07T03:55:33.802Z,40.65
2018-02-07T03:58:01.287Z,43.25
2018-02-07T04:00:28.759Z,43.15
2018-02-07T04:02:56.221Z,40.80
2018-02-07T04:05:23.686Z,39.28
2018-02-07T04:07:51.137Z,44.20
2018-02-07T04:10:18.627Z,42.10
2018-02-07T04:12:46.098Z,39.42
2018-02-07T04:15:13.554Z,40.05
2018-02-07T04:17:41.019Z,40.08
2018-02-07T04:20:08.469Z,40.83
2018-02-07T04:22:35.931Z,41.15
2018-02-07T04:25:03.403Z,39.47
2018-02-07T04:27:30.864Z,41.05
2018-02-07T04:29:58.337Z,37.97
2018-02-07T04:32:25.787Z,37.80
2018-02-07T04:34:53.260Z,39.85
2018-02-07T04:37:21.298Z,38.63
2018-02-07T04:39:48.760Z,38.47
2018-02-07T04:42:16.254Z,39.60
2018-02-07T04:44:43.713Z,37.15
2018-02-07T04:47:11.174Z,40.80
2018-02-07T04:49:38.639Z,39.72
2018-02-07T04:52:06.117Z,36.90
2018-02-07T04:54:33.566Z,39.17
2018-02-07T04:57:01.058Z,36.20
2018-02-07T04:59:28.510Z,36.97
2018-02-07T05:01:55.970Z,36.25
2018-02-07T05:04:23.441Z,38.65
2018-02-07T05:06:50.894Z,37.10
2018-02-07T05:09:18.365Z,38.83
2018-02-07T05:11:45.823Z,35.85
2018-02-07T05:14:13.266Z,35.90
2018-02-07T05:16:40.756Z,34.50
2018-02-07T05:19:08.207Z,35.13
2018-02-07T05:21:35.667Z,35.20
2018-02-07T05:24:03.196Z,35.05
2018-02-07T05:26:30.643Z,34.72
2018-02-07T05:28:58.094Z,35.90
2018-02-07T05:31:25.565Z,33.50
2018-02-07T05:33:53.026Z,36.22
2018-02-07T05:36:20.480Z,36.88
2018-02-07T05:38:47.954Z,37.22
2018-02-07T05:41:15.424Z,34.67
2018-02-07T05:43:42.907Z,34.95
2018-02-07T05:46:10.359Z,36.75
2018-02-07T05:48:37.819Z,37.33
2018-02-07T05:51:05.302Z,33.63
2018-02-07T05:53:32.765Z,35.85
2018-02-07T05:56:00.223Z,33.78
2018-02-07T05:58:27.699Z,35.83
2018-02-07T06:00:55.206Z,34.45
2018-02-07T06:03:22.683Z,36.80
2018-02-07T06:05:50.145Z,36.40
2018-02-07T06:08:17.714Z,36.85
2018-02-07T06:10:45.246Z,34.17
2018-02-07T06:13:12.736Z,36.28
2018-02-07T06:15:40.197Z,34.08
2018-02-07T06:18:07.679Z,36.40
2018-02-07T06:20:36.140Z,34.75
2018-02-07T06:23:03.634Z,35.00
2018-02-07T06:25:31.095Z,35.33
2018-02-07T06:27:58.579Z,32.47
2018-02-07T06:30:26.054Z,32.65
2018-02-07T06:32:53.522Z,34.88
2018-02-07T06:35:20.996Z,33.00
2018-02-07T06:37:48.458Z,35.05
2018-02-07T06:40:15.915Z,33.95
2018-02-07T06:42:43.374Z,33.08
2018-02-07T06:45:10.828Z,32.60
2018-02-07T06:47:38.276Z,32.85
2018-02-07T06:50:05.746Z,32.20
2018-02-07T06:52:33.235Z,33.30
2018-02-07T06:55:00.694Z,34.15
2018-02-07T06:57:28.219Z,32.35
2018-02-07T06:59:55.698Z,31.83
2018-02-07T07:02:23.159Z,33.35
2018-02-07T07:04:50.659Z,34.30
2018-02-07T07:07:18.114Z,34.33
2018-02-07T07:09:45.570Z,33.20
2018-02-07T07:12:13.074Z,33.75
2018-02-07T07:14:40.522Z,34.13
2018-02-07T07:17:08.016Z,33.50
2018-02-07T07:19:35.480Z,33.10
2018-02-07T07:22:03.031Z,33.45
2018-02-07T07:24:30.494Z,33.33
2018-02-07T07:26:57.966Z,33.78
2018-02-07T07:29:25.526Z,33.28
2018-02-07T07:31:52.997Z,33.08
2018-02-07T07:34:20.478Z,33.45
2018-02-07T07:36:47.933Z,33.63
2018-02-07T07:39:15.480Z,32.35
2018-02-07T07:41:42.957Z,33.67
2018-02-07T07:44:10.419Z,32.42
2018-02-07T07:46:37.886Z,33.60
2018-02-07T07:49:05.372Z,32.88
2018-02-07T07:51:32.970Z,33.85
2018-02-07T07:54:00.422Z,34.53
2018-02-07T07:56:27.956Z,31.65
2018-02-07T07:58:55.430Z,33.25
2018-02-07T08:01:22.908Z,33.50
2018-02-07T08:03:50.384Z,33.17
2018-02-07T08:06:17.843Z,32.42
2018-02-07T08:08:45.375Z,32.42
2018-02-07T08:11:12.841Z,34.88
2018-02-07T08:13:40.298Z,30.73
2018-02-07T08:16:07.766Z,32.50
2018-02-07T08:18:35.218Z,30.90
2018-02-07T08:21:02.694Z,35.87
2018-02-07T08:23:30.171Z,32.25
2018-02-07T08:25:57.655Z,28.62
2018-02-07T08:28:25.179Z,29.80
2018-02-07T08:30:52.697Z,29.40
2018-02-07T08:33:20.143Z,28.65
2018-02-07T08:35:47.633Z,29.60
2018-02-07T08:38:15.092Z,30.95
2018-02-07T08:40:42.549Z,30.80
2018-02-07T08:43:10.046Z,28.42
2018-02-07T08:45:37.498Z,30.73
2018-02-07T08:48:05.002Z,31.42
2018-02-07T08:50:32.479Z,30.73
2018-02-07T08:52:59.944Z,31.85
2018-02-07T08:55:27.416Z,30.77
2018-02-07T08:57:54.879Z,32.05
2018-02-07T09:00:22.330Z,31.17
2018-02-07T09:02:49.868Z,32.28
2018-02-07T09:05:17.334Z,30.75
2018-02-07T09:07:44.803Z,30.12
2018-02-07T09:10:12.257Z,27.87
2018-02-07T09:12:39.730Z,29.63
2018-02-07T09:15:07.199Z,29.50
2018-02-07T09:17:34.665Z,31.90
2018-02-07T09:20:02.133Z,31.25
2018-02-07T09:22:29.605Z,29.42
2018-02-07T09:25:02.580Z,29.00
2018-02-07T09:27:30.017Z,28.07
2018-02-07T09:29:57.479Z,28.90
2018-02-07T09:32:25.005Z,28.13
2018-02-07T09:34:52.472Z,26.83
2018-02-07T09:37:19.954Z,27.48
2018-02-07T09:39:47.423Z,27.33
2018-02-07T09:42:14.884Z,26.07
2018-02-07T09:44:42.393Z,26.73
2018-02-07T09:47:09.838Z,25.53
2018-02-07T09:49:37.274Z,26.07
2018-02-07T09:52:04.746Z,27.67
2018-02-07T09:54:32.191Z,24.20
2018-02-07T09:56:59.646Z,25.90
2018-02-07T09:59:29.132Z,27.90
2018-02-07T10:01:56.591Z,26.27
2018-02-07T10:04:24.043Z,26.57
2018-02-07T10:06:51.535Z,25.20
2018-02-07T10:09:19.015Z,27.60
2018-02-07T10:11:46.502Z,25.67
2018-02-07T10:14:13.951Z,24.20
2018-02-07T10:16:41.475Z,25.00
2018-02-07T10:19:08.956Z,24.57
2018-02-07T10:21:36.426Z,24.50
2018-02-07T10:24:03.967Z,25.87
2018-02-07T10:26:31.461Z,22.53
2018-02-07T10:28:58.924Z,24.35
2018-02-07T10:31:26.388Z,23.35
2018-02-07T10:33:53.867Z,22.52
2018-02-07T10:36:21.355Z,23.10
2018-02-07T10:38:48.860Z,23.13
2018-02-07T10:41:16.343Z,22.43
2018-02-07T10:43:43.794Z,24.33
2018-02-07T10:46:11.299Z,25.65
2018-02-07T10:48:38.770Z,24.40
2018-02-07T10:51:06.354Z,25.33
2018-02-07T10:53:33.932Z,23.58
2018-02-07T10:56:01.426Z,23.42
2018-02-07T10:58:29.794Z,23.07
2018-02-07T11:00:57.298Z,25.20
2018-02-07T11:03:24.759Z,23.10
2018-02-07T11:05:52.247Z,25.23
2018-02-07T11:08:19.701Z,25.00
2018-02-07T11:10:47.193Z,23.67
2018-02-07T11:13:14.711Z,25.47
2018-02-07T11:15:42.176Z,24.10
2018-02-07T11:18:09.649Z,24.50
2018-02-07T11:20:37.187Z,25.88
2018-02-07T11:23:04.647Z,25.70
2018-02-07T11:25:32.123Z,24.67
2018-02-07T11:27:59.623Z,25.40
2018-02-07T11:30:27.160Z,26.55
2018-02-07T11:32:55.254Z,25.47
2018-02-07T11:35:22.732Z,24.47
2018-02-07T11:37:50.192Z,26.40
2018-02-07T11:40:17.706Z,26.43
2018-02-07T11:42:45.192Z,25.10
2018-02-07T11:45:12.666Z,24.47
2018-02-07T11:47:40.125Z,25.70
2018-02-07T11:50:07.595Z,23.17
2018-02-07T11:52:35.075Z,26.07
2018-02-07T11:55:02.533Z,24.97
2018-02-07T11:57:29.999Z,25.23
2018-02-07T11:59:57.869Z,23.57
2018-02-07T12:02:25.456Z,23.10
2018-02-07T12:04:52.936Z,23.00
2018-02-07T12:07:20.402Z,23.73
2018-02-07T12:09:48.196Z,22.43
2018-02-07T12:12:15.734Z,23.70
2018-02-07T12:14:43.199Z,21.10
2018-02-07T12:17:10.674Z,21.00
2018-02-07T12:19:38.126Z,22.77
2018-02-07T12:22:05.596Z,22.37
2018-02-07T12:24:33.323Z,22.70
2018-02-07T12:27:00.783Z,21.80
2018-02-07T12:29:28.275Z,20.13
2018-02-07T12:31:55.743Z,21.10
2018-02-07T12:34:23.205Z,19.90
2018-02-07T12:36:50.690Z,19.97
2018-02-07T12:39:18.144Z,20.37
2018-02-07T12:41:45.627Z,19.80
2018-02-07T12:44:13.119Z,23.03
2018-02-07T12:46:40.599Z,20.20
2018-02-07T12:49:08.083Z,18.53
2018-02-07T12:51:35.610Z,18.50
2018-02-07T12:54:03.071Z,17.57
2018-02-07T12:56:30.548Z,18.40
2018-02-07T12:58:58.041Z,18.00
2018-02-07T13:01:25.504Z,18.53
2018-02-07T13:03:52.983Z,18.40
2018-02-07T13:06:21.364Z,18.10
2018-02-07T13:08:48.829Z,17.47
2018-02-07T13:11:16.331Z,18.03
2018-02-07T13:13:43.839Z,16.50
2018-02-07T13:16:11.297Z,17.90
2018-02-07T13:18:38.759Z,16.60
2018-02-07T13:21:06.232Z,15.70
2018-02-07T13:23:33.721Z,17.10
2018-02-07T13:26:01.223Z,17.83
2018-02-07T13:28:28.674Z,18.23
2018-02-07T13:30:56.122Z,18.37
2018-02-07T13:33:23.593Z,17.50
2018-02-07T13:35:51.086Z,19.70
2018-02-07T13:38:18.555Z,17.70
2018-02-07T13:40:46.009Z,16.33
2018-02-07T13:43:13.485Z,15.40
2018-02-07T13:45:40.940Z,17.33
2018-02-07T13:48:08.416Z,16.70
2018-02-07T13:50:35.935Z,17.13
2018-02-07T13:53:03.406Z,16.90
2018-02-07T13:55:30.917Z,17.57
2018-02-07T13:57:58.379Z,15.80
2018-02-07T14:00:25.866Z,16.97
2018-02-07T14:02:53.372Z,16.33
2018-02-07T14:05:20.847Z,16.70
2018-02-07T14:07:48.310Z,16.90
2018-02-07T14:10:15.767Z,16.30
2018-02-07T14:12:46.463Z,16.87
2018-02-07T14:15:13.935Z,16.10
2018-02-07T14:17:41.414Z,16.87
2018-02-07T14:20:08.855Z,15.53
2018-02-07T14:22:36.335Z,15.83
2018-02-07T14:25:03.827Z,16.73
2018-02-07T14:27:31.281Z,16.83
2018-02-07T14:29:58.762Z,18.20
2018-02-07T14:34:59.966Z,15.77
2018-02-07T14:37:27.431Z,16.87
2018-02-07T14:39:54.891Z,17.40
2018-02-07T14:42:22.366Z,18.33
2018-02-07T14:44:49.820Z,18.20
2018-02-07T14:47:17.283Z,20.70
2018-02-07T14:49:44.765Z,20.00
2018-02-07T14:52:12.240Z,22.70
2018-02-07T14:54:39.754Z,23.23
2018-02-07T14:57:07.219Z,24.20
2018-02-07T14:59:34.680Z,24.93
2018-02-07T15:02:02.153Z,24.13
2018-02-07T15:04:29.639Z,25.97
2018-02-07T15:06:57.122Z,25.40
2018-02-07T15:09:24.622Z,28.43
2018-02-07T15:11:52.131Z,27.20
2018-02-07T15:14:19.600Z,30.03
2018-02-07T15:16:47.071Z,28.73
2018-02-07T15:19:14.525Z,30.43
2018-02-07T15:21:41.979Z,36.07
2018-02-07T15:24:09.435Z,33.20
2018-02-07T15:26:36.890Z,28.40
2018-02-07T15:29:04.370Z,31.83
2018-02-07T15:31:31.827Z,27.80
2018-02-07T15:33:59.304Z,29.27
2018-02-07T15:36:26.782Z,26.50
2018-02-07T15:38:54.286Z,25.87
2018-02-07T15:41:21.832Z,22.40
2018-02-07T15:43:49.311Z,26.90
2018-02-07T15:46:16.832Z,25.93
2018-02-07T15:48:44.238Z,26.13
2018-02-07T15:51:11.734Z,27.70
2018-02-07T15:53:39.202Z,27.70
2018-02-07T15:56:06.659Z,28.33
2018-02-07T15:58:34.135Z,28.60
2018-02-07T16:01:01.595Z,30.90
2018-02-07T16:03:29.131Z,27.47
2018-02-07T16:05:56.577Z,27.20
2018-02-07T16:08:24.023Z,25.20
2018-02-07T16:10:51.527Z,28.83
2018-02-07T16:13:18.990Z,27.20
2018-02-07T16:15:46.477Z,28.33
2018-02-07T16:18:13.986Z,30.17
2018-02-07T16:20:41.462Z,29.27
2018-02-07T16:23:09.551Z,29.37
2018-02-07T16:25:37.038Z,29.80
2018-02-07T16:28:04.511Z,29.83
2018-02-07T16:30:31.989Z,30.83
2018-02-07T16:32:59.490Z,32.75
2018-02-07T16:35:26.942Z,31.43
2018-02-07T16:37:54.432Z,30.30
2018-02-07T16:40:21.893Z,32.00
2018-02-07T16:42:49.403Z,31.60
2018-02-07T16:45:16.906Z,32.40
2018-02-07T16:47:44.368Z,32.63
2018-02-07T16:50:11.815Z,34.40
2018-02-07T16:52:39.322Z,33.15
2018-02-07T16:55:06.794Z,35.53
2018-02-07T16:57:34.289Z,33.20
2018-02-07T17:00:01.761Z,34.73
2018-02-07T17:02:29.211Z,34.63
2018-02-07T17:04:56.681Z,36.57
2018-02-07T17:07:24.163Z,36.90
2018-02-07T17:09:51.612Z,36.53
2018-02-07T17:12:19.075Z,35.30
2018-02-07T17:14:46.566Z,37.13
2018-02-07T17:17:14.113Z,35.37
2018-02-07T17:19:41.665Z,37.90
2018-02-07T17:22:09.115Z,38.67
2018-02-07T17:24:36.622Z,40.70
2018-02-07T17:27:04.084Z,39.93
2018-02-07T17:29:31.634Z,38.43
2018-02-07T17:31:59.105Z,35.35
2018-02-07T17:34:26.572Z,36.13
2018-02-07T17:36:54.032Z,36.40
2018-02-07T17:39:21.521Z,34.07
2018-02-07T17:41:48.977Z,32.80
2018-02-07T17:44:16.448Z,31.43
2018-02-07T17:46:43.928Z,32.17
2018-02-07T17:49:11.398Z,31.23
2018-02-07T17:51:38.897Z,31.30
2018-02-07T17:54:06.415Z,33.40
2018-02-07T17:56:33.892Z,28.15
2018-02-07T17:59:01.379Z,31.20
2018-02-07T18:01:28.871Z,30.00
2018-02-07T18:03:56.332Z,31.57
2018-02-07T18:06:23.802Z,31.65
2018-02-07T18:08:51.282Z,32.60
2018-02-07T18:11:18.728Z,31.63
2018-02-07T18:13:46.247Z,33.30
2018-02-07T18:16:13.725Z,28.60
2018-02-07T18:18:41.188Z,30.73
2018-02-07T18:21:08.656Z,27.30
2018-02-07T18:23:36.152Z,28.30
2018-02-07T18:26:03.703Z,28.17
2018-02-07T18:28:31.172Z,29.17
2018-02-07T18:30:58.652Z,28.65
2018-02-07T18:33:26.144Z,27.80
2018-02-07T18:35:53.629Z,27.77
2018-02-07T18:38:21.108Z,27.00
2018-02-07T18:40:48.593Z,27.35
2018-02-07T18:43:16.065Z,24.42
2018-02-07T18:45:43.540Z,29.77
2018-02-07T18:48:11.040Z,26.27
2018-02-07T18:50:38.551Z,26.02
2018-02-07T18:53:06.026Z,27.15
2018-02-07T18:55:33.508Z,23.45
2018-02-07T18:58:00.965Z,22.83
2018-02-07T19:00:28.445Z,25.95
2018-02-07T19:02:55.930Z,26.77
2018-02-07T19:05:23.396Z,26.57
2018-02-07T19:07:50.871Z,26.70
2018-02-07T19:10:18.339Z,26.43
2018-02-07T19:12:45.867Z,25.27
2018-02-07T19:15:13.353Z,26.58
2018-02-07T19:17:40.855Z,27.95
2018-02-07T19:20:08.321Z,21.37
2018-02-07T19:22:35.864Z,25.33
2018-02-07T19:25:03.353Z,25.35
2018-02-07T19:27:30.798Z,24.87
2018-02-07T19:29:58.281Z,23.17
2018-02-07T19:32:25.803Z,23.87
2018-02-07T19:34:53.308Z,20.95
2018-02-07T19:37:20.778Z,21.55
2018-02-07T19:39:48.342Z,19.90
2018-02-07T19:42:15.856Z,19.30
2018-02-07T19:44:44.188Z,19.40
2018-02-07T19:47:11.668Z,16.40
2018-02-07T19:49:39.174Z,18.17
2018-02-07T19:52:06.663Z,16.48
2018-02-07T19:54:34.137Z,17.08
2018-02-07T20:09:56.777Z,12.95
2018-02-07T20:12:24.268Z,12.25
2018-02-07T20:14:51.741Z,12.23
2018-02-07T20:17:19.318Z,11.80
2018-02-07T20:19:46.825Z,10.82
2018-02-07T20:22:14.302Z,10.00
2018-02-07T20:24:41.800Z,8.98
2018-02-07T20:27:09.279Z,8.75
2018-02-07T20:29:36.780Z,9.40
2018-02-07T20:32:04.264Z,10.03
2018-02-07T20:34:31.744Z,7.82
2018-02-07T20:36:59.249Z,9.07
2018-02-07T20:39:26.710Z,10.80
2018-02-07T20:41:54.183Z,10.43
2018-02-07T20:44:21.675Z,11.15
2018-02-07T20:46:49.144Z,11.50
2018-02-07T20:49:16.635Z,11.57
2018-02-07T20:51:44.130Z,11.18
2018-02-07T20:54:11.611Z,13.27
2018-02-07T20:56:39.109Z,13.57
2018-02-07T20:59:06.607Z,15.18
2018-02-07T21:01:34.115Z,14.63
2018-02-07T21:04:01.648Z,14.63
2018-02-07T21:06:29.123Z,14.90
2018-02-07T21:08:56.625Z,15.80
2018-02-07T21:11:24.125Z,17.40
2018-02-07T21:13:51.612Z,16.08
2018-02-07T21:16:19.108Z,18.80
2018-02-07T21:18:46.635Z,16.75
2018-02-07T21:21:14.150Z,19.65
2018-02-07T21:23:41.641Z,19.48
2018-02-07T21:26:09.131Z,21.05
2018-02-07T21:28:36.628Z,21.30
2018-02-07T21:31:04.107Z,22.27
2018-02-07T21:33:31.626Z,21.73
2018-02-07T21:35:59.119Z,21.23
2018-02-07T21:38:26.586Z,22.90
2018-02-07T21:40:54.100Z,22.33
2018-02-07T21:43:21.574Z,22.55
2018-02-07T21:45:49.059Z,21.85
2018-02-07T21:48:16.591Z,21.92
2018-02-07T21:50:44.184Z,21.65
2018-02-07T21:53:11.626Z,23.15
2018-02-07T21:55:39.119Z,22.95
2018-02-07T21:58:06.651Z,21.75
2018-02-07T22:00:34.165Z,23.77
2018-02-07T22:03:01.681Z,22.65
2018-02-07T22:05:29.172Z,20.95
2018-02-07T22:07:56.663Z,21.85
2018-02-07T22:10:24.144Z,21.52
2018-02-07T22:12:51.614Z,19.80
2018-02-07T22:15:19.625Z,20.90
2018-02-07T22:17:47.105Z,20.75
2018-02-07T22:20:14.679Z,19.20
2018-02-07T22:22:42.193Z,21.33
2018-02-07T22:25:09.660Z,21.55
2018-02-07T22:27:37.180Z,22.87
2018-02-07T22:30:04.665Z,20.37
2018-02-07T22:32:32.159Z,20.35
2018-02-07T22:34:59.719Z,20.60
2018-02-07T22:37:27.252Z,21.55
2018-02-07T22:39:54.734Z,22.42
2018-02-07T22:42:22.244Z,21.33
2018-02-07T22:44:49.795Z,21.90
2018-02-07T22:47:17.269Z,22.10
2018-02-07T22:49:44.773Z,22.02
2018-02-07T22:52:12.231Z,22.98
2018-02-07T22:54:39.708Z,23.05
2018-02-07T22:57:07.217Z,22.87
2018-02-07T22:59:34.674Z,22.35
2018-02-07T23:02:02.151Z,22.42
2018-02-07T23:04:29.622Z,22.27
2018-02-07T23:06:57.089Z,23.42
2018-02-07T23:09:24.554Z,23.58
2018-02-07T23:11:52.049Z,24.65
2018-02-07T23:14:19.584Z,23.75
2018-02-07T23:16:47.070Z,24.15
2018-02-07T23:19:14.711Z,25.73
2018-02-07T23:21:42.202Z,25.75
2018-02-07T23:26:43.520Z,24.00
2018-02-07T23:29:11.042Z,25.17
2018-02-07T23:31:38.568Z,23.55
2018-02-07T23:34:06.036Z,25.67
2018-02-07T23:36:33.508Z,24.90
2018-02-07T23:39:00.997Z,25.80
2018-02-07T23:41:28.501Z,23.40
2018-02-07T23:43:56.082Z,26.40
2018-02-07T23:46:23.551Z,26.10
2018-02-07T23:48:51.028Z,25.92
2018-02-07T23:51:18.490Z,25.88
2018-02-07T23:53:46.028Z,25.98
2018-02-07T23:56:13.523Z,27.00
2018-02-07T23:58:41.008Z,26.75
